Time;durP1;ratioP1;P1;durP2;ratioP2;P2;SDS_P1;SDS_P2;PMS_P1;PMS_P2;Temp;Humidity;BMP_temperature;BMP_pressure;BME280_temperature;BME280_humidity;BME280_pressure;Samples;Min_cycle;Max_cycle;Signal;HPM_P1;HPM_P2
2022/06/11 00:01:37;;;;;;;7.03;5.47;;;;;;;15.48;100.00;101867.81;4990139;28;20177;-49
2022/06/11 00:04:06;;;;;;;6.25;5.38;;;;;;;15.69;100.00;101868.69;4989460;28;20629;-50
2022/06/11 00:06:36;;;;;;;7.03;5.53;;;;;;;15.75;100.00;101873.00;4990560;28;20169;-52
2022/06/11 00:09:03;;;;;;;6.18;5.30;;;;;;;15.61;100.00;101870.84;4989998;28;20173;-51
2022/06/11 00:11:30;;;;;;;6.85;6.03;;;;;;;15.45;100.00;101866.09;4989647;28;20182;-49
2022/06/11 00:13:56;;;;;;;6.40;4.97;;;;;;;15.56;100.00;101876.44;4992095;28;20557;-51
2022/06/11 00:16:24;;;;;;;6.93;5.30;;;;;;;15.62;100.00;101869.91;4993758;28;20188;-50
2022/06/11 00:18:54;;;;;;;7.82;5.07;;;;;;;15.53;100.00;101871.19;4993861;28;20302;-48
2022/06/11 00:21:20;;;;;;;5.80;4.78;;;;;;;15.59;100.00;101870.94;4993627;28;20641;-51
2022/06/11 00:23:46;;;;;;;4.97;4.47;;;;;;;15.69;100.00;101874.09;4975813;28;20170;-51
2022/06/11 00:26:12;;;;;;;5.90;5.18;;;;;;;15.53;100.00;101876.59;4993643;28;20165;-51
2022/06/11 00:28:37;;;;;;;8.02;5.90;;;;;;;15.49;100.00;101874.09;4993543;28;20174;-49
2022/06/11 00:31:04;;;;;;;8.20;6.25;;;;;;;15.37;100.00;101872.75;4976146;28;20251;-49
2022/06/11 00:33:31;;;;;;;6.00;5.38;;;;;;;15.43;100.00;101869.81;4993465;28;20595;-49
2022/06/11 00:35:56;;;;;;;7.28;5.97;;;;;;;15.47;100.00;101859.75;4993229;28;20261;-48
2022/06/11 00:38:23;;;;;;;9.55;7.78;;;;;;;15.50;100.00;101871.28;4993319;28;20668;-52
2022/06/11 00:40:51;;;;;;;6.47;5.53;;;;;;;15.39;100.00;101863.69;4993354;28;20204;-48
2022/06/11 00:43:19;;;;;;;7.35;6.65;;;;;;;15.58;100.00;101863.75;4993208;28;20188;-49
2022/06/11 00:46:21;;;;;;;9.15;7.13;;;;;;;15.50;100.00;101857.78;4993345;28;20256;-49
2022/06/11 00:48:47;;;;;;;11.00;8.45;;;;;;;15.46;100.00;101861.59;4993182;28;20544;-51
2022/06/11 00:51:17;;;;;;;11.23;9.73;;;;;;;15.56;100.00;101862.06;4993156;28;20178;-48
2022/06/11 00:54:08;;;;;;;17.88;10.15;;;;;;;15.36;100.00;101860.22;4991920;28;20767;-49
2022/06/11 00:56:38;;;;;;;12.10;8.48;;;;;;;15.55;100.00;101855.78;4992560;28;20186;-49
2022/06/11 00:59:09;;;;;;;14.80;7.97;;;;;;;15.60;100.00;101851.06;4992498;28;20169;-48
2022/06/11 01:01:34;;;;;;;9.27;7.35;;;;;;;15.62;100.00;101853.72;4993222;28;20190;-49
2022/06/11 01:04:02;;;;;;;14.35;8.82;;;;;;;15.47;100.00;101862.47;4992865;28;20281;-49
2022/06/11 01:06:51;;;;;;;9.55;8.10;;;;;;;15.48;100.00;101848.00;4979137;28;20232;-47
2022/06/11 01:09:19;;;;;;;13.50;8.45;;;;;;;15.49;100.00;101855.19;4992676;28;20228;-49
2022/06/11 01:11:52;;;;;;;17.50;8.55;;;;;;;15.50;100.00;101852.38;4992813;28;20796;-50
2022/06/11 01:14:32;;;;;;;11.73;7.35;;;;;;;15.61;100.00;101865.44;4992754;28;20209;-51
2022/06/11 01:17:12;;;;;;;12.95;8.10;;;;;;;15.62;100.00;101862.69;4992674;28;20181;-48
2022/06/11 01:20:07;;;;;;;9.55;6.80;;;;;;;15.70;100.00;101862.38;4992720;28;20711;-48
2022/06/11 01:22:57;;;;;;;13.52;7.22;;;;;;;15.56;100.00;101865.63;4992568;28;20627;-49
2022/06/11 01:26:00;;;;;;;9.98;6.50;;;;;;;15.69;100.00;101859.72;4991921;28;20664;-51
2022/06/11 01:28:54;;;;;;;11.63;7.63;;;;;;;15.57;100.00;101847.63;4992504;28;20552;-48
2022/06/11 01:31:28;;;;;;;11.38;8.30;;;;;;;15.47;100.00;101836.34;4992642;28;20194;-52
2022/06/11 01:34:06;;;;;;;11.90;7.43;;;;;;;15.57;100.00;101829.59;4992171;28;20213;-50
2022/06/11 01:36:39;;;;;;;8.38;6.63;;;;;;;15.57;100.00;101821.50;4992518;28;20174;-50
2022/06/11 01:39:07;;;;;;;10.73;6.57;;;;;;;15.51;100.00;101821.75;4992714;28;20600;-53
2022/06/11 01:41:46;;;;;;;12.18;7.35;;;;;;;15.48;100.00;101819.19;4992422;28;20189;-50
2022/06/11 01:44:19;;;;;;;9.98;6.43;;;;;;;15.40;100.00;101814.09;4974475;28;20684;-48
2022/06/11 01:46:48;;;;;;;11.10;6.80;;;;;;;15.34;100.00;101814.38;4991975;28;20191;-49
2022/06/11 01:49:25;;;;;;;8.55;6.18;;;;;;;15.46;100.00;101812.97;4992480;28;20220;-49
2022/06/11 01:52:22;;;;;;;9.85;5.80;;;;;;;15.56;100.00;101811.63;4991970;28;20518;-48
2022/06/11 01:54:54;;;;;;;6.90;5.20;;;;;;;15.51;100.00;101812.78;4991721;28;20239;-47
2022/06/11 01:57:51;;;;;;;8.73;5.30;;;;;;;15.40;100.00;101810.53;4992105;28;20613;-55
2022/06/11 02:00:37;;;;;;;7.72;5.60;;;;;;;15.32;100.00;101809.97;4992153;28;20569;-48
2022/06/11 02:03:27;;;;;;;7.35;5.05;;;;;;;15.47;100.00;101793.13;4991566;28;20676;-47
2022/06/11 02:06:14;;;;;;;7.10;5.43;;;;;;;15.38;100.00;101812.41;4991923;28;20193;-48
2022/06/11 02:08:53;;;;;;;7.75;5.45;;;;;;;15.30;100.00;101798.38;4992127;28;20161;-47
2022/06/11 02:11:39;;;;;;;11.23;6.13;;;;;;;15.25;100.00;101795.84;4991959;28;20169;-47
2022/06/11 02:14:12;;;;;;;6.57;5.68;;;;;;;15.12;100.00;101794.63;4973829;28;20303;-49
2022/06/11 02:16:53;;;;;;;10.88;6.00;;;;;;;15.00;100.00;101790.63;4991843;28;20532;-46
2022/06/11 02:19:28;;;;;;;9.65;5.57;;;;;;;14.97;100.00;101778.13;4991498;28;20183;-51
2022/06/11 02:22:11;;;;;;;11.20;5.78;;;;;;;14.96;100.00;101792.56;4973954;28;20176;-51
2022/06/11 02:24:52;;;;;;;8.77;6.10;;;;;;;15.00;100.00;101782.53;4991410;28;20213;-49
2022/06/11 02:27:23;;;;;;;10.43;5.40;;;;;;;15.12;100.00;101783.81;4991576;28;20165;-50
2022/06/11 02:29:51;;;;;;;7.85;4.72;;;;;;;15.11;100.00;101788.34;4991134;28;20169;-52
2022/06/11 02:32:19;;;;;;;5.80;4.95;;;;;;;15.14;100.00;101787.34;4991408;28;20165;-51
2022/06/11 02:34:57;;;;;;;8.02;4.97;;;;;;;14.94;100.00;101791.75;4990494;28;20201;-48
2022/06/11 02:37:26;;;;;;;11.00;6.07;;;;;;;15.06;100.00;101781.38;4990733;28;20587;-50
2022/06/11 02:39:56;;;;;;;10.13;7.50;;;;;;;14.92;100.00;101788.22;4991353;28;20284;-48
2022/06/11 02:42:23;;;;;;;10.65;6.70;;;;;;;14.91;100.00;101790.97;4991011;28;20223;-47
2022/06/11 02:44:49;;;;;;;8.20;6.82;;;;;;;14.97;100.00;101790.72;4991007;28;20712;-47
2022/06/11 02:47:17;;;;;;;11.55;7.68;;;;;;;14.92;100.00;101793.63;4990916;28;20250;-48
2022/06/11 02:49:42;;;;;;;12.95;8.10;;;;;;;14.96;100.00;101787.16;4991182;28;20166;-49
2022/06/11 02:52:20;;;;;;;12.55;9.63;;;;;;;15.08;100.00;101785.75;4973757;28;20192;-47
2022/06/11 02:54:49;;;;;;;14.77;10.25;;;;;;;15.00;100.00;101785.22;4991031;28;20213;-50
2022/06/11 02:57:21;;;;;;;13.13;10.07;;;;;;;15.10;100.00;101793.81;4991334;28;20277;-46
2022/06/11 02:59:47;;;;;;;11.93;9.38;;;;;;;15.03;100.00;101790.47;4990818;28;20173;-46
2022/06/11 03:02:12;;;;;;;10.25;9.18;;;;;;;15.07;100.00;101792.13;4991118;28;20166;-46
2022/06/11 03:04:38;;;;;;;11.90;10.70;;;;;;;15.07;100.00;101786.72;4990789;28;20185;-48
2022/06/11 03:07:05;;;;;;;10.77;9.68;;;;;;;15.12;100.00;101790.09;4973512;28;20173;-45
2022/06/11 03:09:33;;;;;;;12.52;9.35;;;;;;;15.04;100.00;101789.53;4991087;28;20586;-44
2022/06/11 03:12:00;;;;;;;14.48;9.07;;;;;;;14.91;100.00;101804.47;4990583;28;20170;-44
2022/06/11 03:14:26;;;;;;;12.88;10.50;;;;;;;14.81;100.00;101801.28;4990857;28;20977;-45
2022/06/11 03:16:52;;;;;;;13.50;12.05;;;;;;;14.72;100.00;101790.88;4991024;28;20219;-42
2022/06/11 03:19:20;;;;;;;15.27;12.15;;;;;;;14.70;100.00;101788.22;4973822;28;20177;-42
2022/06/11 03:21:50;;;;;;;14.10;12.38;;;;;;;14.78;100.00;101804.09;4991475;28;20171;-41
2022/06/11 03:24:17;;;;;;;12.63;10.27;;;;;;;14.88;100.00;101797.38;4990931;28;20251;-41
2022/06/11 03:26:42;;;;;;;12.75;10.25;;;;;;;14.95;100.00;101795.31;4991270;28;20170;-41
2022/06/11 03:29:08;;;;;;;12.27;10.85;;;;;;;14.90;100.00;101802.72;4991370;28;20586;-41
2022/06/11 03:31:35;;;;;;;10.38;9.23;;;;;;;14.96;100.00;101794.38;4991043;28;20169;-42
2022/06/11 03:34:00;;;;;;;14.43;12.93;;;;;;;14.99;100.00;101788.84;4990941;28;20225;-41
2022/06/11 03:36:26;;;;;;;15.63;12.70;;;;;;;14.95;100.00;101793.47;4991317;28;20221;-42
2022/06/11 03:38:52;;;;;;;13.55;12.27;;;;;;;15.04;100.00;101798.53;4991224;28;20192;-43
2022/06/11 03:41:21;;;;;;;13.23;12.13;;;;;;;15.18;100.00;101787.13;4991062;28;20184;-47
2022/06/11 03:43:49;;;;;;;14.85;13.23;;;;;;;15.17;100.00;101788.06;4990964;28;20629;-41
2022/06/11 03:46:15;;;;;;;13.95;12.68;;;;;;;15.21;100.00;101784.31;4991106;28;20173;-42
2022/06/11 03:48:41;;;;;;;13.48;12.07;;;;;;;15.27;100.00;101777.78;4975323;28;20248;-44
2022/06/11 03:51:07;;;;;;;16.77;13.57;;;;;;;15.23;100.00;101777.00;4994726;28;20704;-43
2022/06/11 03:53:34;;;;;;;14.57;13.18;;;;;;;15.16;100.00;101780.06;4994435;28;20168;-41
2022/06/11 03:56:00;;;;;;;14.57;13.07;;;;;;;15.11;100.00;101777.56;4994523;28;20265;-47
2022/06/11 03:58:26;;;;;;;18.33;13.65;;;;;;;15.11;100.00;101773.94;4994605;28;20157;-46
2022/06/11 04:03:37;;;;;;;13.15;11.88;;;;;;;15.14;100.00;101773.84;4994264;28;20625;-45
2022/06/11 04:06:04;;;;;;;16.15;14.45;;;;;;;15.13;100.00;101770.28;4994233;28;20182;-45
2022/06/11 04:08:31;;;;;;;13.20;11.90;;;;;;;15.25;100.00;101775.13;4994483;28;20225;-45
2022/06/11 04:10:59;;;;;;;15.75;14.02;;;;;;;15.21;100.00;101778.91;4994385;28;20179;-44
2022/06/11 04:13:27;;;;;;;16.67;14.68;;;;;;;15.16;100.00;101764.72;4994093;28;20232;-41
2022/06/11 04:15:53;;;;;;;15.70;14.02;;;;;;;15.22;100.00;101772.56;4994108;28;20700;-43
2022/06/11 04:18:48;;;;;;;15.75;14.13;;;;;;;15.31;100.00;101770.44;4993768;28;20182;-48
2022/06/11 04:21:14;;;;;;;17.55;15.38;;;;;;;15.24;100.00;101772.53;4992204;28;20687;-43
2022/06/11 04:23:42;;;;;;;17.75;16.05;;;;;;;15.30;100.00;101774.94;4993644;28;20236;-46
2022/06/11 04:26:12;;;;;;;18.45;16.20;;;;;;;15.32;100.00;101772.19;4994212;28;20174;-43
2022/06/11 04:28:39;;;;;;;17.77;15.95;;;;;;;15.39;100.00;101770.97;4993488;28;20176;-44
2022/06/11 04:31:07;;;;;;;16.10;14.45;;;;;;;15.46;100.00;101761.66;4993610;28;20261;-41
2022/06/11 04:33:33;;;;;;;18.08;16.15;;;;;;;15.49;100.00;101766.91;4993681;28;20165;-42
2022/06/11 04:35:59;;;;;;;21.63;16.50;;;;;;;15.52;100.00;101771.31;4993753;28;20170;-43
2022/06/11 04:38:25;;;;;;;19.60;16.45;;;;;;;15.56;100.00;101770.22;4993570;28;20195;-44
2022/06/11 04:40:52;;;;;;;19.33;15.75;;;;;;;15.52;100.00;101782.09;4993872;28;20166;-42
2022/06/11 04:43:18;;;;;;;16.73;15.00;;;;;;;15.58;100.00;101768.34;4993497;28;20256;-46
2022/06/11 04:45:44;;;;;;;16.60;15.02;;;;;;;15.68;100.00;101771.50;4993561;28;20236;-43
2022/06/11 04:48:10;;;;;;;16.75;14.55;;;;;;;15.71;100.00;101768.69;4993212;28;20571;-42
2022/06/11 04:50:35;;;;;;;14.85;13.38;;;;;;;15.81;100.00;101770.94;4993425;28;20651;-46
2022/06/11 04:53:02;;;;;;;15.52;14.10;;;;;;;15.85;100.00;101760.84;4993495;28;20173;-42
2022/06/11 04:55:28;;;;;;;16.08;14.15;;;;;;;15.96;100.00;101766.66;4993130;28;20185;-41
2022/06/11 04:57:53;;;;;;;14.80;12.98;;;;;;;16.07;100.00;101760.75;4993450;28;20188;-43
2022/06/11 05:00:22;;;;;;;13.95;12.63;;;;;;;16.17;100.00;101762.06;4992721;28;20279;-46
2022/06/11 05:02:47;;;;;;;13.80;12.52;;;;;;;16.25;100.00;101751.78;4993219;28;20169;-42
2022/06/11 05:05:14;;;;;;;15.40;13.05;;;;;;;16.38;100.00;101756.63;4993230;28;20202;-43
2022/06/11 05:07:41;;;;;;;14.30;12.25;;;;;;;16.45;100.00;101758.94;4993079;28;20203;-42
2022/06/11 05:10:08;;;;;;;13.48;12.00;;;;;;;16.57;100.00;101759.28;4993255;28;20832;-42
2022/06/11 05:12:33;;;;;;;14.15;10.73;;;;;;;16.67;100.00;101758.78;4993092;28;20514;-44
2022/06/11 05:14:59;;;;;;;14.13;11.48;;;;;;;16.75;100.00;101766.53;4992556;28;20223;-45
2022/06/11 05:17:24;;;;;;;11.95;10.50;;;;;;;16.84;100.00;101763.38;4992944;28;20169;-42
2022/06/11 05:19:50;;;;;;;12.10;10.88;;;;;;;16.96;100.00;101761.03;4993243;28;20165;-44
2022/06/11 05:22:16;;;;;;;12.68;11.35;;;;;;;17.05;100.00;101768.66;4993029;28;20180;-44
2022/06/11 05:24:42;;;;;;;11.73;10.35;;;;;;;17.04;100.00;101773.22;4992389;28;20276;-44
2022/06/11 05:27:13;;;;;;;13.30;10.85;;;;;;;17.21;100.00;101766.09;4992947;28;20639;-43
2022/06/11 05:30:00;;;;;;;11.20;9.90;;;;;;;17.26;100.00;101762.16;4992784;28;20240;-43
2022/06/11 05:32:30;;;;;;;16.75;10.60;;;;;;;17.37;100.00;101764.31;4992544;28;20259;-42
2022/06/11 05:34:58;;;;;;;11.00;9.98;;;;;;;17.47;100.00;101764.72;4975023;28;20205;-44
2022/06/11 05:37:24;;;;;;;11.82;9.65;;;;;;;17.63;100.00;101770.22;4992287;28;20176;-43
2022/06/11 05:39:50;;;;;;;11.63;9.55;;;;;;;17.69;99.49;101775.31;4975235;28;20624;-45
2022/06/11 05:42:17;;;;;;;9.65;8.65;;;;;;;17.82;98.99;101767.41;4992708;28;20169;-44
2022/06/11 05:44:43;;;;;;;10.88;9.75;;;;;;;18.02;97.97;101766.38;4990476;28;20251;-47
2022/06/11 05:47:12;;;;;;;12.75;9.07;;;;;;;18.14;96.34;101765.69;4991973;28;20177;-46
2022/06/11 05:49:41;;;;;;;13.30;9.50;;;;;;;18.29;94.63;101772.09;4991981;28;20169;-46
2022/06/11 05:52:13;;;;;;;13.27;9.88;;;;;;;18.27;93.78;101768.59;4991980;28;20184;-46
2022/06/11 05:54:40;;;;;;;9.75;8.50;;;;;;;18.16;93.73;101771.91;4990495;28;20213;-45
2022/06/11 05:57:08;;;;;;;12.32;9.90;;;;;;;18.12;93.82;101773.88;4991559;28;20177;-47
2022/06/11 05:59:38;;;;;;;12.30;8.48;;;;;;;17.99;94.43;101777.38;4989655;28;20211;-46
2022/06/11 06:02:08;;;;;;;12.93;9.10;;;;;;;18.08;94.57;101793.13;4991780;28;20207;-45
2022/06/11 06:04:34;;;;;;;10.45;9.15;;;;;;;18.10;94.60;101781.25;4990630;28;20255;-45
2022/06/11 06:07:00;;;;;;;16.73;10.70;;;;;;;18.04;94.11;101781.59;4990454;28;20201;-46
2022/06/11 06:09:25;;;;;;;18.30;10.60;;;;;;;17.99;93.85;101780.06;4991255;28;20268;-46
2022/06/11 06:11:51;;;;;;;11.82;10.07;;;;;;;18.10;93.51;101783.97;4990255;28;20220;-46
2022/06/11 06:14:16;;;;;;;10.93;9.82;;;;;;;18.18;93.46;101774.53;4990873;28;20726;-48
2022/06/11 06:16:42;;;;;;;15.13;10.55;;;;;;;18.25;93.44;101779.53;4990976;28;20174;-45
2022/06/11 06:19:08;;;;;;;11.38;9.00;;;;;;;18.37;92.77;101768.97;4991406;28;20174;-45
2022/06/11 06:21:35;;;;;;;12.45;9.07;;;;;;;18.33;93.27;101774.56;4991326;28;20168;-47
2022/06/11 06:24:01;;;;;;;13.43;10.50;;;;;;;18.44;93.06;101782.09;4991300;28;20197;-44
2022/06/11 06:26:27;;;;;;;13.52;10.73;;;;;;;18.21;92.97;101775.22;4992000;28;20173;-43
2022/06/11 06:28:52;;;;;;;12.38;9.57;;;;;;;18.28;93.32;101779.38;4991618;28;20165;-44
2022/06/11 06:31:18;;;;;;;13.88;10.85;;;;;;;18.21;92.94;101782.50;4991164;28;20188;-42
2022/06/11 06:33:45;;;;;;;13.00;9.85;;;;;;;18.23;93.34;101783.28;4991374;28;20169;-44
2022/06/11 06:36:11;;;;;;;11.15;9.52;;;;;;;18.26;92.92;101780.41;4991359;28;20168;-45
2022/06/11 06:38:38;;;;;;;13.00;9.57;;;;;;;18.30;92.99;101787.41;4991293;28;20185;-46
2022/06/11 06:41:04;;;;;;;15.02;9.95;;;;;;;18.37;92.61;101791.53;4991514;28;20209;-44
2022/06/11 06:43:30;;;;;;;14.15;9.40;;;;;;;18.36;92.08;101792.50;4990357;28;20166;-43
2022/06/11 06:45:55;;;;;;;11.90;8.55;;;;;;;18.55;91.54;101788.75;4991721;28;20689;-44
2022/06/11 06:48:21;;;;;;;13.32;9.15;;;;;;;18.46;91.32;101788.31;4991034;28;20175;-46
2022/06/11 06:50:47;;;;;;;11.65;8.35;;;;;;;18.55;91.41;101791.47;4991452;28;20217;-43
2022/06/11 06:53:13;;;;;;;11.15;8.40;;;;;;;18.61;90.75;101778.44;4991397;28;20162;-41
2022/06/11 06:55:38;;;;;;;14.43;9.13;;;;;;;18.49;90.98;101787.25;4990940;28;20216;-44
2022/06/11 06:58:04;;;;;;;15.52;8.95;;;;;;;18.54;91.06;101793.28;4991120;28;20165;-44
2022/06/11 07:00:30;;;;;;;10.77;9.05;;;;;;;18.55;91.26;101786.91;4990889;28;20562;-45
2022/06/11 07:02:56;;;;;;;15.20;10.13;;;;;;;18.59;90.96;101777.66;4990919;28;20178;-44
2022/06/11 07:05:23;;;;;;;15.93;10.45;;;;;;;18.58;90.68;101775.00;4990915;28;20281;-46
2022/06/11 07:07:49;;;;;;;11.18;10.00;;;;;;;18.73;90.55;101772.28;4973520;28;20268;-47
2022/06/11 07:10:17;;;;;;;11.68;8.10;;;;;;;18.90;90.60;101778.63;4991154;28;20189;-44
2022/06/11 07:12:43;;;;;;;11.63;9.35;;;;;;;18.56;89.83;101787.78;4990788;28;20190;-42
2022/06/11 07:15:09;;;;;;;15.65;8.80;;;;;;;18.48;90.63;101790.94;4990776;28;20798;-45
2022/06/11 07:17:40;;;;;;;9.68;7.95;;;;;;;18.53;90.99;101784.28;4991468;28;20165;-46
2022/06/11 07:20:15;;;;;;;13.75;8.13;;;;;;;18.64;91.24;101790.94;4989071;28;20629;-43
2022/06/11 07:22:51;;;;;;;12.48;8.05;;;;;;;18.53;90.93;101788.84;4990933;28;20176;-45
2022/06/11 07:25:17;;;;;;;11.60;7.72;;;;;;;18.61;90.49;101783.00;4990182;28;20291;-45
2022/06/11 07:27:50;;;;;;;11.80;7.93;;;;;;;18.74;89.96;101789.47;4990948;28;20193;-48
2022/06/11 07:30:20;;;;;;;11.00;7.25;;;;;;;18.86;89.18;101798.78;4990862;28;20173;-44
2022/06/11 07:32:51;;;;;;;10.52;7.53;;;;;;;18.79;88.78;101791.94;4991065;28;20172;-43
2022/06/11 07:35:17;;;;;;;13.15;7.68;;;;;;;18.72;89.41;101794.97;4990846;28;20220;-43
2022/06/11 07:37:45;;;;;;;10.60;7.47;;;;;;;18.78;89.63;101780.19;4990542;28;20272;-48
2022/06/11 07:40:12;;;;;;;13.98;8.00;;;;;;;18.85;88.04;101787.03;4988733;28;20185;-45
2022/06/11 07:42:38;;;;;;;11.50;7.40;;;;;;;19.02;87.12;101787.88;4989999;28;20181;-44
2022/06/11 07:45:04;;;;;;;8.88;7.30;;;;;;;19.08;86.20;101788.41;4990997;28;20232;-45
2022/06/11 07:50:13;;;;;;;11.43;7.15;;;;;;;19.14;85.06;101785.31;4990891;28;20201;-45
2022/06/11 07:52:40;;;;;;;10.10;7.35;;;;;;;19.59;84.09;101789.94;4991212;28;20296;-44
2022/06/11 07:55:07;;;;;;;12.82;7.53;;;;;;;20.01;82.50;101782.88;4990683;28;20209;-44
2022/06/11 07:57:32;;;;;;;13.20;6.75;;;;;;;20.42;80.44;101796.53;4991385;28;20173;-44
2022/06/11 07:59:58;;;;;;;9.93;6.43;;;;;;;20.50;79.48;101780.59;4991206;28;20675;-43
2022/06/11 08:02:25;;;;;;;10.68;5.25;;;;;;;20.48;77.38;101796.13;4990922;28;20170;-44
2022/06/11 08:04:51;;;;;;;6.90;4.68;;;;;;;20.83;74.63;101773.94;4990733;28;20185;-44
2022/06/11 08:07:16;;;;;;;8.32;5.30;;;;;;;20.89;74.29;101776.25;4972681;28;20178;-45
2022/06/11 08:09:42;;;;;;;6.95;4.18;;;;;;;20.74;75.00;101780.84;4990709;28;20232;-42
2022/06/11 08:12:08;;;;;;;10.30;5.05;;;;;;;20.69;74.46;101782.16;4990506;28;20449;-43
2022/06/11 08:14:33;;;;;;;6.70;3.83;;;;;;;20.62;73.84;101776.25;4989926;28;20643;-44
2022/06/11 08:16:58;;;;;;;6.43;3.30;;;;;;;20.99;72.56;101796.47;4990502;28;20173;-44
2022/06/11 08:19:24;;;;;;;6.53;3.55;;;;;;;20.98;73.77;101788.38;4972818;28;20177;-45
2022/06/11 08:21:50;;;;;;;7.18;3.53;;;;;;;21.33;72.69;101788.72;4990328;28;20173;-43
2022/06/11 08:24:16;;;;;;;7.80;2.70;;;;;;;21.28;72.13;101793.63;4972628;28;20204;-43
2022/06/11 08:26:41;;;;;;;7.30;2.78;;;;;;;20.99;70.06;101793.75;4990114;28;20629;-44
2022/06/11 08:29:07;;;;;;;5.53;2.60;;;;;;;20.64;70.51;101795.19;4990274;28;20175;-46
2022/06/11 08:31:32;;;;;;;6.45;2.90;;;;;;;20.02;71.95;101803.66;4990167;28;20188;-43
2022/06/11 08:33:58;;;;;;;6.95;3.03;;;;;;;20.36;70.82;101797.81;5004250;28;20212;-43
2022/06/11 08:36:23;;;;;;;8.45;3.97;;;;;;;20.29;70.96;101790.13;5012772;28;20203;-44
2022/06/11 08:38:49;;;;;;;5.05;2.88;;;;;;;20.03;71.77;101798.13;5013280;28;20279;-43
2022/06/11 08:41:20;;;;;;;6.47;2.58;;;;;;;21.08;71.34;101788.63;5013139;28;20168;-44
2022/06/11 08:43:57;;;;;;;5.97;2.92;;;;;;;21.23;69.81;101800.34;5012778;28;20211;-43
2022/06/11 08:46:28;;;;;;;6.35;2.50;;;;;;;21.68;68.67;101796.34;5013266;28;20172;-44
2022/06/11 08:49:03;;;;;;;8.13;2.92;;;;;;;21.68;67.82;101784.56;5012910;28;20200;-42
2022/06/11 08:51:41;;;;;;;5.78;3.08;;;;;;;21.96;65.67;101789.81;5013343;28;20241;-46
2022/06/11 08:54:10;;;;;;;6.07;3.03;;;;;;;21.83;65.30;101785.34;4994976;28;20211;-46
2022/06/11 08:57:25;;;;;;;6.55;2.70;;;;;;;21.88;65.46;101785.88;5013107;28;20204;-43
2022/06/11 09:00:09;;;;;;;5.55;2.47;;;;;;;22.44;63.79;101785.56;5008449;28;20200;-44
2022/06/11 09:02:40;;;;;;;7.13;2.70;;;;;;;22.28;63.88;101788.50;5012818;28;20168;-43
2022/06/11 09:05:40;;;;;;;4.72;2.60;;;;;;;22.80;63.06;101780.06;5012585;28;20568;-44
2022/06/11 09:08:32;;;;;;;6.88;2.90;;;;;;;22.40;63.50;101791.22;5012608;28;20335;-45
2022/06/11 09:11:09;;;;;;;7.65;2.85;;;;;;;21.04;67.36;101798.00;5012639;28;20177;-43
2022/06/11 09:13:50;;;;;;;6.82;3.17;;;;;;;20.72;66.97;101792.84;5012311;28;20200;-45
2022/06/11 09:16:29;;;;;;;5.90;3.22;;;;;;;21.07;66.67;101804.09;5012909;28;20637;-43
2022/06/11 09:19:27;;;;;;;8.05;3.33;;;;;;;21.64;64.34;101804.84;5012448;28;20164;-42
2022/06/11 09:22:07;;;;;;;6.90;3.70;;;;;;;21.84;63.64;101808.91;4984439;28;20188;-40
2022/06/11 09:25:09;;;;;;;8.38;3.55;;;;;;;21.87;63.91;101808.72;5012189;28;20192;-43
2022/06/11 09:27:56;;;;;;;5.43;3.33;;;;;;;22.16;63.31;101795.72;5012697;28;20472;-42
2022/06/11 09:30:30;;;;;;;7.30;3.30;;;;;;;22.31;61.33;101812.88;5012083;28;20164;-45
2022/06/11 09:33:08;;;;;;;9.70;3.20;;;;;;;22.29;62.02;101804.78;5012017;28;20178;-44
2022/06/11 09:35:41;;;;;;;5.85;3.00;;;;;;;22.32;61.30;101809.16;5011608;28;20208;-46
2022/06/11 09:38:15;;;;;;;9.35;3.33;;;;;;;21.72;62.72;101807.94;5011960;28;20192;-47
2022/06/11 09:40:50;;;;;;;5.13;2.75;;;;;;;21.07;64.04;101817.72;5011833;28;20619;-47
2022/06/11 09:43:29;;;;;;;7.00;3.10;;;;;;;22.08;63.40;101807.16;5011681;28;20179;-47
2022/06/11 09:46:16;;;;;;;7.15;3.05;;;;;;;22.29;60.83;101814.84;5009965;28;20423;-47
2022/06/11 09:49:13;;;;;;;5.78;2.70;;;;;;;21.81;61.95;101816.31;4998671;28;20640;-46
2022/06/11 09:52:07;;;;;;;7.90;2.90;;;;;;;21.34;61.91;101811.38;4974733;28;20205;-48
2022/06/11 09:54:51;;;;;;;6.30;2.85;;;;;;;20.74;64.21;101827.16;4991547;28;20688;-49
2022/06/11 09:57:17;;;;;;;4.63;2.50;;;;;;;21.08;62.87;101824.94;4991823;28;20184;-47
2022/06/11 10:00:13;;;;;;;8.27;3.00;;;;;;;21.66;62.50;101821.97;4992013;28;20173;-49
2022/06/11 10:06:14;;;;;;;5.40;2.90;;;;;;;22.30;60.72;101817.47;4991980;28;20208;-46
2022/06/11 10:08:52;;;;;;;8.52;2.55;;;;;;;22.41;58.39;101820.31;4934924;29;20210;-46
2022/06/11 10:11:39;;;;;;;7.63;2.72;;;;;;;22.65;57.84;101810.41;4988201;28;20290;-51
2022/06/11 10:14:29;;;;;;;4.05;2.10;;;;;;;22.95;56.58;101807.25;4991668;28;20280;-52
2022/06/11 10:17:03;;;;;;;8.38;2.53;;;;;;;22.89;59.01;101815.91;4992305;28;20184;-47
2022/06/11 10:19:32;;;;;;;6.57;2.78;;;;;;;21.37;60.44;101836.59;4992336;28;20184;-46
2022/06/11 10:22:14;;;;;;;6.65;2.85;;;;;;;21.74;61.08;101825.94;4992295;28;20204;-49
2022/06/11 10:24:47;;;;;;;6.35;2.80;;;;;;;22.13;61.85;101837.75;4991495;28;20203;-47
2022/06/11 10:27:17;;;;;;;7.43;2.55;;;;;;;22.04;61.28;101830.22;4991918;28;20199;-47
2022/06/11 10:29:49;;;;;;;8.50;3.00;;;;;;;22.16;61.05;101834.78;4992028;28;20183;-48
2022/06/11 10:32:27;;;;;;;6.90;2.88;;;;;;;22.38;59.45;101825.97;4991913;28;20231;-47
2022/06/11 10:35:00;;;;;;;6.40;2.53;;;;;;;22.78;60.54;101831.25;4991523;28;20216;-48
2022/06/11 10:37:58;;;;;;;7.28;2.90;;;;;;;22.38;58.96;101836.03;4991670;28;20185;-47
2022/06/11 10:40:33;;;;;;;5.82;2.35;;;;;;;22.35;58.44;101828.06;4974809;28;20209;-45
2022/06/11 10:43:11;;;;;;;9.20;2.97;;;;;;;21.60;62.04;101832.34;4991760;28;20164;-48
2022/06/11 10:45:37;;;;;;;8.55;3.05;;;;;;;22.07;62.23;101832.72;4991245;28;20196;-47
2022/06/11 10:48:12;;;;;;;8.20;3.20;;;;;;;21.88;61.48;101838.59;4991854;28;20177;-47
2022/06/11 10:50:38;;;;;;;11.55;3.63;;;;;;;21.99;60.32;101843.31;4991392;28;20169;-46
2022/06/11 10:53:16;;;;;;;6.78;2.42;;;;;;;21.73;60.40;101828.75;4991678;28;20578;-46
2022/06/11 10:55:44;;;;;;;9.23;2.65;;;;;;;21.41;59.91;101842.78;4991194;28;20223;-46
2022/06/11 10:58:46;;;;;;;8.65;2.40;;;;;;;21.80;58.43;101833.69;4991315;28;20191;-47
2022/06/11 11:01:30;;;;;;;6.57;2.78;;;;;;;22.05;58.54;101842.00;4984329;28;20201;-47
2022/06/11 11:04:05;;;;;;;7.07;2.47;;;;;;;22.06;57.61;101833.69;4991618;28;20208;-47
2022/06/11 11:06:34;;;;;;;9.18;2.47;;;;;;;22.63;56.95;101837.88;4991389;28;20188;-48
2022/06/11 11:09:06;;;;;;;7.10;2.60;;;;;;;22.70;55.84;101838.28;4991297;28;20203;-49
2022/06/11 11:11:46;;;;;;;8.30;2.58;;;;;;;22.86;56.96;101830.69;4991441;28;20181;-48
2022/06/11 11:14:21;;;;;;;7.28;2.78;;;;;;;22.80;56.13;101828.41;4990870;28;20750;-51
2022/06/11 11:16:52;;;;;;;9.82;3.00;;;;;;;22.17;58.06;101841.13;4990159;28;20219;-47
2022/06/11 11:19:40;;;;;;;7.95;3.10;;;;;;;22.18;58.68;101834.69;4991649;28;20177;-50
2022/06/11 11:22:06;;;;;;;10.15;3.00;;;;;;;21.96;59.19;101840.81;4973937;28;20185;-50
2022/06/11 11:24:38;;;;;;;11.32;3.60;;;;;;;22.28;59.90;101845.84;4990300;28;20694;-47
2022/06/11 11:27:19;;;;;;;7.93;3.00;;;;;;;22.51;59.57;101846.94;4991518;28;20180;-48
2022/06/11 11:29:54;;;;;;;11.32;3.47;;;;;;;22.64;58.90;101836.84;4991147;28;20173;-47
2022/06/11 11:32:29;;;;;;;12.82;3.80;;;;;;;22.65;59.47;101851.38;4991296;28;20643;-46
2022/06/11 11:34:55;;;;;;;9.80;3.35;;;;;;;22.11;60.32;101860.69;4990499;28;20227;-48
2022/06/11 11:37:31;;;;;;;11.63;3.58;;;;;;;22.80;59.75;101844.78;4990700;28;20521;-51
2022/06/11 11:40:00;;;;;;;12.07;2.95;;;;;;;22.61;58.45;101850.75;4991244;28;20216;-50
2022/06/11 11:42:38;;;;;;;13.45;3.38;;;;;;;22.62;58.70;101860.69;4990594;28;20227;-46
2022/06/11 11:45:24;;;;;;;12.32;3.60;;;;;;;22.74;58.94;101856.16;4988326;28;20207;-44